createdAt,value
2018-05-31T00:01:17.164Z,22.05
2018-05-31T00:03:44.724Z,22.12
2018-05-31T00:06:12.287Z,22.17
2018-05-31T00:08:39.994Z,22.16
2018-05-31T00:11:07.574Z,21.96
2018-05-31T00:13:35.298Z,21.91
2018-05-31T00:16:03.215Z,22.03
2018-05-31T00:18:30.805Z,21.83
2018-05-31T00:20:58.419Z,21.91
2018-05-31T00:23:25.947Z,21.79
2018-05-31T00:25:53.548Z,21.83
2018-05-31T00:28:21.214Z,21.73
2018-05-31T00:30:48.844Z,21.77
2018-05-31T00:33:16.366Z,21.81
2018-05-31T00:35:43.897Z,21.86
2018-05-31T00:38:11.436Z,21.88
2018-05-31T00:40:38.980Z,21.72
2018-05-31T00:43:06.559Z,21.74
2018-05-31T00:45:34.092Z,21.58
2018-05-31T00:48:01.623Z,21.57
2018-05-31T00:50:29.259Z,21.61
2018-05-31T00:52:56.913Z,21.54
2018-05-31T00:55:36.448Z,21.58
2018-05-31T00:58:03.984Z,21.57
2018-05-31T01:00:31.574Z,21.54
2018-05-31T01:02:59.233Z,21.39
2018-05-31T01:05:26.756Z,21.49
2018-05-31T01:07:54.287Z,21.44
2018-05-31T01:10:21.844Z,21.27
2018-05-31T01:12:49.481Z,21.30
2018-05-31T01:15:17.029Z,21.37
2018-05-31T01:17:44.568Z,21.33
2018-05-31T01:20:12.156Z,21.18
2018-05-31T01:22:39.675Z,21.21
2018-05-31T01:25:07.277Z,21.26
2018-05-31T01:27:34.807Z,21.16
2018-05-31T01:30:02.336Z,21.19
2018-05-31T01:32:29.879Z,21.18
2018-05-31T01:34:57.403Z,21.14
2018-05-31T01:37:24.944Z,21.14
2018-05-31T01:39:52.533Z,21.06
2018-05-31T01:42:20.085Z,21.06
2018-05-31T01:44:47.643Z,21.14
2018-05-31T01:47:15.218Z,21.18
2018-05-31T01:49:42.764Z,21.21
2018-05-31T01:52:10.310Z,21.20
2018-05-31T01:54:37.884Z,21.19
2018-05-31T01:57:05.425Z,21.22
2018-05-31T01:59:33.012Z,21.26
2018-05-31T02:02:00.578Z,21.24
2018-05-31T02:04:28.119Z,21.25
2018-05-31T02:06:55.663Z,21.33
2018-05-31T02:09:23.260Z,21.38
2018-05-31T02:11:50.804Z,21.38
2018-05-31T02:14:18.345Z,21.39
2018-05-31T02:16:45.937Z,21.35
2018-05-31T02:19:13.480Z,21.31
2018-05-31T02:21:41.052Z,21.23
2018-05-31T02:24:08.579Z,21.23
2018-05-31T02:26:36.173Z,21.20
2018-05-31T02:29:03.704Z,21.25
2018-05-31T02:31:31.234Z,21.20
2018-05-31T02:33:58.856Z,21.04
2018-05-31T02:36:26.388Z,21.12
2018-05-31T02:38:53.923Z,21.00
2018-05-31T02:41:21.537Z,21.10
2018-05-31T02:43:49.067Z,21.12
2018-05-31T02:46:16.657Z,20.88
2018-05-31T02:48:44.186Z,20.92
2018-05-31T02:51:11.710Z,20.98
2018-05-31T02:53:39.282Z,20.80
2018-05-31T02:56:06.833Z,20.80
2018-05-31T02:58:34.457Z,20.87
2018-05-31T03:01:01.984Z,20.86
2018-05-31T03:03:29.512Z,20.83
2018-05-31T03:05:57.066Z,20.84
2018-05-31T03:08:24.693Z,20.79
2018-05-31T03:10:52.433Z,20.79
2018-05-31T03:13:19.993Z,20.88
2018-05-31T03:15:47.583Z,20.81
2018-05-31T03:18:15.144Z,20.82
2018-05-31T03:20:42.703Z,20.74
2018-05-31T03:23:10.353Z,20.72
2018-05-31T03:25:37.891Z,20.64
2018-05-31T03:28:05.428Z,20.56
2018-05-31T03:30:33.031Z,20.52
2018-05-31T03:33:00.571Z,20.54
2018-05-31T03:35:28.197Z,20.61
2018-05-31T03:37:55.764Z,20.51
2018-05-31T03:40:23.329Z,20.54
2018-05-31T03:42:50.945Z,20.51
2018-05-31T03:45:18.511Z,20.49
2018-05-31T03:47:46.049Z,20.51
2018-05-31T03:50:13.596Z,20.54
2018-05-31T03:52:41.152Z,20.55
2018-05-31T03:55:08.748Z,20.52
2018-05-31T03:57:36.412Z,20.57
2018-05-31T04:00:04.071Z,20.54
2018-05-31T04:02:31.734Z,20.58
2018-05-31T04:04:59.397Z,20.52
2018-05-31T04:07:26.970Z,20.62
2018-05-31T04:09:54.619Z,20.61
2018-05-31T04:12:22.276Z,20.68
2018-05-31T04:14:50.627Z,20.78
2018-05-31T04:17:18.188Z,20.82
2018-05-31T04:19:45.743Z,20.90
2018-05-31T04:22:13.300Z,20.82
2018-05-31T04:24:40.901Z,20.95
2018-05-31T04:27:08.444Z,20.97
2018-05-31T04:29:36.026Z,20.96
2018-05-31T04:32:03.622Z,20.97
2018-05-31T04:34:31.213Z,20.90
2018-05-31T04:36:58.757Z,21.05
2018-05-31T04:39:26.364Z,21.04
2018-05-31T04:41:54.027Z,21.08
2018-05-31T04:44:21.687Z,21.11
2018-05-31T04:46:49.335Z,21.17
2018-05-31T04:49:16.884Z,21.16
2018-05-31T04:51:44.435Z,21.15
2018-05-31T04:54:11.977Z,21.18
2018-05-31T04:56:39.524Z,21.26
2018-05-31T04:59:07.149Z,21.32
2018-05-31T05:01:34.828Z,21.38
2018-05-31T05:04:02.373Z,21.48
2018-05-31T05:06:29.916Z,21.52
2018-05-31T05:08:57.596Z,21.51
2018-05-31T05:11:25.264Z,21.57
2018-05-31T05:13:52.936Z,21.75
2018-05-31T05:16:20.481Z,21.86
2018-05-31T05:18:48.041Z,21.94
2018-05-31T05:21:15.690Z,22.13
2018-05-31T05:23:43.248Z,22.16
2018-05-31T05:26:10.828Z,22.27
2018-05-31T05:28:38.401Z,22.33
2018-05-31T05:31:05.943Z,22.41
2018-05-31T05:33:33.591Z,22.58
2018-05-31T05:36:01.165Z,22.53
2018-05-31T05:38:28.826Z,22.74
2018-05-31T05:40:56.387Z,22.85
2018-05-31T05:43:23.923Z,22.94
2018-05-31T05:45:51.473Z,23.03
2018-05-31T05:48:19.032Z,23.12
2018-05-31T05:50:46.591Z,23.19
2018-05-31T05:53:14.128Z,23.18
2018-05-31T05:55:41.721Z,23.16
2018-05-31T05:58:09.307Z,23.25
2018-05-31T06:00:36.867Z,23.63
2018-05-31T06:03:04.530Z,23.73
2018-05-31T06:05:32.193Z,23.84
2018-05-31T06:07:59.869Z,24.17
2018-05-31T06:10:27.421Z,24.55
2018-05-31T06:12:55.043Z,24.32
2018-05-31T06:15:22.585Z,24.55
2018-05-31T06:17:50.129Z,24.53
2018-05-31T06:20:17.689Z,24.78
2018-05-31T06:22:45.239Z,25.30
2018-05-31T06:25:12.807Z,25.55
2018-05-31T06:27:40.423Z,25.79
2018-05-31T06:30:07.964Z,26.45
2018-05-31T06:32:35.557Z,26.45
2018-05-31T06:35:03.222Z,26.26
2018-05-31T06:37:30.744Z,26.38
2018-05-31T06:39:58.277Z,26.40
2018-05-31T06:42:25.893Z,26.32
2018-05-31T06:44:53.414Z,27.12
2018-05-31T06:47:20.968Z,27.48
2018-05-31T06:49:48.508Z,27.18
2018-05-31T06:52:16.149Z,27.30
2018-05-31T06:54:43.805Z,27.49
2018-05-31T06:57:11.329Z,27.67
2018-05-31T06:59:38.916Z,28.20
2018-05-31T07:02:06.451Z,28.38
2018-05-31T07:04:33.983Z,28.58
2018-05-31T07:07:01.524Z,29.25
2018-05-31T07:09:29.057Z,29.26
2018-05-31T07:11:56.575Z,29.75
2018-05-31T07:14:24.177Z,29.30
2018-05-31T07:16:51.735Z,29.49
2018-05-31T07:19:19.265Z,29.52
2018-05-31T07:21:46.819Z,29.69
2018-05-31T07:24:14.376Z,29.92
2018-05-31T07:26:41.986Z,30.01
2018-05-31T07:29:09.547Z,30.37
2018-05-31T07:31:37.196Z,30.52
2018-05-31T07:34:04.733Z,31.20
2018-05-31T07:36:32.251Z,30.43
2018-05-31T07:38:59.867Z,30.90
2018-05-31T07:41:27.397Z,31.13
2018-05-31T07:43:54.927Z,31.70
2018-05-31T07:46:22.547Z,31.82
2018-05-31T07:48:50.122Z,31.59
2018-05-31T07:51:17.643Z,31.59
2018-05-31T07:53:45.185Z,33.37
2018-05-31T07:56:12.802Z,33.71
2018-05-31T07:58:40.327Z,32.03
2018-05-31T08:01:07.916Z,31.80
2018-05-31T08:03:35.452Z,32.22
2018-05-31T08:06:02.968Z,32.32
2018-05-31T08:08:30.601Z,33.00
2018-05-31T08:10:58.125Z,33.37
2018-05-31T08:13:25.679Z,35.62
2018-05-31T08:15:53.280Z,36.34
2018-05-31T08:18:20.807Z,37.18
2018-05-31T08:20:48.328Z,35.53
2018-05-31T08:23:15.857Z,34.84
2018-05-31T08:25:43.384Z,36.54
2018-05-31T08:28:10.926Z,38.06
2018-05-31T08:30:38.492Z,38.02
2018-05-31T08:33:06.022Z,38.91
2018-05-31T08:35:33.658Z,39.67
2018-05-31T08:38:01.220Z,39.45
2018-05-31T08:40:28.777Z,39.45
2018-05-31T08:42:56.373Z,37.11
2018-05-31T08:45:23.955Z,35.56
2018-05-31T08:47:51.562Z,37.06
2018-05-31T08:50:19.232Z,36.11
2018-05-31T08:52:46.764Z,39.60
2018-05-31T08:55:14.308Z,40.43
2018-05-31T08:57:41.833Z,39.26
2018-05-31T09:00:09.404Z,39.86
2018-05-31T09:02:37.004Z,39.45
2018-05-31T09:05:04.558Z,41.01
2018-05-31T09:07:32.109Z,38.83
2018-05-31T09:09:59.653Z,34.57
2018-05-31T09:12:27.186Z,38.60
2018-05-31T09:14:54.728Z,40.97
2018-05-31T09:17:22.366Z,37.70
2018-05-31T09:19:49.896Z,38.34
2018-05-31T09:22:17.526Z,39.45
2018-05-31T09:24:45.061Z,37.13
2018-05-31T09:27:12.585Z,37.28
2018-05-31T09:29:40.135Z,36.13
2018-05-31T09:32:07.740Z,37.06
2018-05-31T09:34:35.270Z,39.79
2018-05-31T09:37:02.799Z,39.94
2018-05-31T09:39:30.319Z,39.00
2018-05-31T09:41:57.832Z,37.52
2018-05-31T09:44:25.393Z,38.20
2018-05-31T09:46:52.918Z,39.07
2018-05-31T09:49:20.560Z,40.12
2018-05-31T09:51:48.084Z,38.15
2018-05-31T09:54:15.643Z,36.42
2018-05-31T09:56:43.236Z,37.68
2018-05-31T09:59:10.820Z,37.90
2018-05-31T10:01:38.356Z,38.87
2018-05-31T10:04:05.872Z,37.50
2018-05-31T10:06:33.477Z,37.66
2018-05-31T10:09:01.033Z,36.91
2018-05-31T10:11:28.567Z,38.35
2018-05-31T10:13:56.081Z,39.72
2018-05-31T10:16:23.716Z,39.01
2018-05-31T10:18:51.232Z,37.12
2018-05-31T10:21:18.790Z,37.73
2018-05-31T10:23:46.316Z,39.38
2018-05-31T10:26:13.853Z,38.81
2018-05-31T10:28:41.413Z,38.99
2018-05-31T10:31:08.939Z,40.76
2018-05-31T10:33:36.477Z,39.61
2018-05-31T10:36:04.096Z,40.83
2018-05-31T10:38:31.624Z,39.40
2018-05-31T10:40:59.147Z,39.89
2018-05-31T10:43:26.711Z,39.63
2018-05-31T10:45:54.289Z,38.01
2018-05-31T10:48:21.893Z,37.65
2018-05-31T10:50:49.448Z,36.63
2018-05-31T10:53:16.969Z,36.94
2018-05-31T10:55:44.511Z,37.25
2018-05-31T10:58:12.131Z,35.51
2018-05-31T11:00:39.656Z,34.84
2018-05-31T11:03:07.181Z,33.92
2018-05-31T11:05:34.808Z,34.14
2018-05-31T11:08:02.336Z,33.25
2018-05-31T11:10:29.884Z,32.62
2018-05-31T11:12:57.440Z,33.23
2018-05-31T11:15:24.997Z,33.12
2018-05-31T11:17:52.596Z,32.62
2018-05-31T11:20:20.128Z,32.27
2018-05-31T11:22:47.656Z,31.96
2018-05-31T11:25:15.293Z,31.83
2018-05-31T11:27:42.851Z,32.03
2018-05-31T11:30:10.394Z,31.96
2018-05-31T11:32:37.928Z,31.94
2018-05-31T11:35:05.533Z,31.71
2018-05-31T11:37:33.092Z,31.68
2018-05-31T11:40:00.647Z,31.48
2018-05-31T11:42:28.182Z,31.54
2018-05-31T11:44:55.704Z,31.33
2018-05-31T11:47:23.230Z,31.48
2018-05-31T11:49:50.744Z,31.51
2018-05-31T11:52:18.283Z,31.23
2018-05-31T11:54:45.849Z,31.34
2018-05-31T11:57:13.397Z,31.41
2018-05-31T11:59:40.923Z,31.30
2018-05-31T12:02:08.486Z,31.43
2018-05-31T12:04:36.041Z,31.31
2018-05-31T12:07:03.555Z,31.42
2018-05-31T12:09:31.092Z,31.44
2018-05-31T12:11:58.621Z,31.36
2018-05-31T12:14:26.623Z,31.34
2018-05-31T12:16:54.187Z,31.15
2018-05-31T12:19:21.707Z,31.19
2018-05-31T12:21:49.236Z,31.13
2018-05-31T12:24:16.763Z,31.18
2018-05-31T12:26:44.288Z,31.28
2018-05-31T12:29:11.847Z,31.18
2018-05-31T12:31:39.409Z,31.20
2018-05-31T12:34:06.976Z,31.30
2018-05-31T12:36:34.480Z,31.33
2018-05-31T12:39:02.025Z,31.24
2018-05-31T12:41:29.542Z,31.36
2018-05-31T12:43:57.075Z,31.09
2018-05-31T12:46:24.609Z,31.24
2018-05-31T12:48:52.145Z,31.26
2018-05-31T12:51:19.780Z,31.35
2018-05-31T12:53:47.371Z,31.48
2018-05-31T12:56:14.915Z,31.49
2018-05-31T12:58:42.466Z,31.44
2018-05-31T13:01:09.988Z,31.59
2018-05-31T13:03:37.558Z,31.51
2018-05-31T13:06:05.165Z,31.51
2018-05-31T13:08:32.648Z,31.54
2018-05-31T13:11:00.199Z,31.43
2018-05-31T13:13:27.811Z,31.38
2018-05-31T13:15:55.352Z,31.48
2018-05-31T13:18:22.893Z,31.25
2018-05-31T13:20:50.521Z,31.29
2018-05-31T13:23:18.053Z,31.25
2018-05-31T13:25:45.618Z,31.11
2018-05-31T13:28:13.179Z,31.05
2018-05-31T13:30:40.740Z,30.88
2018-05-31T13:33:08.308Z,30.92
2018-05-31T13:35:35.858Z,30.78
2018-05-31T13:38:03.418Z,30.73
2018-05-31T13:40:30.944Z,30.83
2018-05-31T13:42:58.480Z,30.77
2018-05-31T13:45:26.028Z,30.84
2018-05-31T13:47:53.583Z,30.98
2018-05-31T13:50:21.121Z,31.04
2018-05-31T13:52:48.676Z,31.03
2018-05-31T13:55:16.208Z,30.93
2018-05-31T13:57:43.731Z,30.99
2018-05-31T14:00:11.249Z,31.09
2018-05-31T14:02:38.788Z,31.04
2018-05-31T14:05:06.309Z,31.01
2018-05-31T14:07:33.869Z,30.94
2018-05-31T14:10:01.397Z,30.99
2018-05-31T14:12:28.911Z,30.89
2018-05-31T14:14:56.515Z,30.97
2018-05-31T14:17:24.076Z,30.93
2018-05-31T14:19:51.620Z,30.96
2018-05-31T14:22:19.131Z,31.00
2018-05-31T14:24:46.739Z,30.91
2018-05-31T14:27:14.276Z,30.87
2018-05-31T14:29:41.799Z,30.84
2018-05-31T14:32:09.438Z,30.88
2018-05-31T14:34:36.965Z,30.85
2018-05-31T14:37:04.485Z,30.92
2018-05-31T14:39:32.005Z,30.81
2018-05-31T14:41:59.573Z,30.63
2018-05-31T14:44:27.097Z,30.78
2018-05-31T14:46:54.696Z,30.87
2018-05-31T14:49:22.207Z,30.78
2018-05-31T14:51:49.748Z,30.77
2018-05-31T14:54:17.378Z,30.80
2018-05-31T14:56:44.948Z,30.83
2018-05-31T14:59:12.462Z,30.83
2018-05-31T15:01:40.049Z,30.82
2018-05-31T15:04:07.646Z,30.85
2018-05-31T15:06:35.157Z,30.95
2018-05-31T15:09:02.704Z,31.01
2018-05-31T15:11:30.228Z,31.10
2018-05-31T15:13:57.752Z,31.07
2018-05-31T15:16:25.279Z,31.19
2018-05-31T15:18:52.863Z,31.31
2018-05-31T15:21:20.385Z,31.34
2018-05-31T15:23:48.036Z,31.34
2018-05-31T15:26:15.645Z,31.36
2018-05-31T15:28:43.176Z,31.36
2018-05-31T15:31:10.766Z,31.46
2018-05-31T15:33:38.335Z,31.44
2018-05-31T15:36:05.898Z,31.40
2018-05-31T15:38:33.453Z,31.46
2018-05-31T15:41:01.012Z,31.30
2018-05-31T15:43:28.542Z,31.32
2018-05-31T15:45:56.116Z,31.36
2018-05-31T15:48:23.639Z,31.16
2018-05-31T15:50:51.184Z,31.30
2018-05-31T15:53:18.708Z,31.43
2018-05-31T15:55:46.234Z,31.37
2018-05-31T15:58:13.765Z,31.50
2018-05-31T16:00:41.326Z,31.47
2018-05-31T16:03:08.961Z,31.51
2018-05-31T16:05:36.505Z,31.43
2018-05-31T16:08:04.032Z,31.31
2018-05-31T16:10:31.623Z,31.42
2018-05-31T16:12:59.152Z,31.38
2018-05-31T16:15:26.750Z,31.42
2018-05-31T16:17:54.296Z,31.33
2018-05-31T16:20:21.821Z,31.29
2018-05-31T16:22:49.364Z,31.38
2018-05-31T16:25:16.986Z,31.29
2018-05-31T16:27:44.515Z,31.19
2018-05-31T16:30:12.039Z,31.14
2018-05-31T16:32:39.572Z,31.09
2018-05-31T16:35:07.272Z,30.97
2018-05-31T16:37:34.786Z,30.99
2018-05-31T16:40:02.346Z,30.90
2018-05-31T16:42:29.906Z,30.94
2018-05-31T16:44:57.476Z,30.79
2018-05-31T16:47:25.127Z,30.80
2018-05-31T16:49:52.657Z,30.78
2018-05-31T16:52:20.184Z,30.87
2018-05-31T16:54:47.805Z,30.90
2018-05-31T16:57:15.470Z,30.87
2018-05-31T16:59:43.028Z,30.90
2018-05-31T17:02:10.557Z,30.80
2018-05-31T17:04:38.190Z,30.83
2018-05-31T17:07:05.825Z,30.74
2018-05-31T17:09:33.469Z,30.72
2018-05-31T17:12:00.988Z,30.76
2018-05-31T17:14:28.836Z,30.63
2018-05-31T17:16:56.448Z,30.65
2018-05-31T17:19:24.030Z,30.61
2018-05-31T17:21:51.572Z,30.49
2018-05-31T17:24:19.127Z,30.46
2018-05-31T17:26:46.718Z,30.41
2018-05-31T17:29:14.315Z,30.38
2018-05-31T17:31:42.137Z,30.33
2018-05-31T17:34:09.672Z,30.33
2018-05-31T17:36:37.337Z,30.29
2018-05-31T17:39:05.835Z,30.22
2018-05-31T17:41:33.372Z,30.24
2018-05-31T17:44:00.888Z,30.32
2018-05-31T17:46:28.487Z,30.23
2018-05-31T17:48:56.065Z,30.16
2018-05-31T17:51:23.583Z,30.19
2018-05-31T17:53:51.157Z,30.20
2018-05-31T17:56:18.725Z,30.18
2018-05-31T17:58:46.532Z,30.13
2018-05-31T18:01:14.177Z,30.07
2018-05-31T18:03:41.707Z,30.05
2018-05-31T18:06:09.237Z,30.02
2018-05-31T18:08:36.762Z,30.00
2018-05-31T18:11:04.415Z,29.97
2018-05-31T18:13:31.944Z,29.96
2018-05-31T18:15:59.492Z,29.92
2018-05-31T18:18:27.033Z,29.91
2018-05-31T18:20:54.659Z,29.90
2018-05-31T18:23:22.179Z,29.86
2018-05-31T18:25:49.705Z,29.86
2018-05-31T18:28:17.245Z,29.80
2018-05-31T18:30:44.895Z,29.79
2018-05-31T18:33:12.403Z,29.76
2018-05-31T18:35:40.015Z,29.72
2018-05-31T18:38:07.560Z,29.70
2018-05-31T18:40:35.120Z,29.67
2018-05-31T18:43:02.647Z,29.63
2018-05-31T18:45:30.246Z,29.59
2018-05-31T18:47:57.815Z,29.54
2018-05-31T18:50:25.339Z,29.53
2018-05-31T18:52:52.965Z,29.52
2018-05-31T18:55:20.586Z,29.49
2018-05-31T18:57:48.164Z,29.46
2018-05-31T19:00:15.683Z,29.45
2018-05-31T19:02:43.283Z,29.43
2018-05-31T19:05:10.947Z,29.40
2018-05-31T19:07:38.476Z,29.38
2018-05-31T19:10:05.993Z,29.36
2018-05-31T19:12:39.061Z,29.33
2018-05-31T19:15:06.726Z,29.31
2018-05-31T19:17:34.275Z,29.32
2018-05-31T19:20:01.812Z,29.30
2018-05-31T19:22:29.342Z,29.28
2018-05-31T19:25:02.592Z,29.24
2018-05-31T19:27:30.124Z,29.21
2018-05-31T19:30:03.236Z,29.20
2018-05-31T19:32:30.801Z,29.19
2018-05-31T19:34:58.355Z,29.20
2018-05-31T19:37:25.879Z,29.15
2018-05-31T19:39:53.401Z,29.10
2018-05-31T19:42:26.490Z,29.10
2018-05-31T19:44:54.011Z,29.09
2018-05-31T19:47:21.566Z,29.04
2018-05-31T19:49:49.085Z,29.02
2018-05-31T19:52:22.221Z,29.01
2018-05-31T19:54:49.751Z,29.02
2018-05-31T19:57:17.284Z,28.97
2018-05-31T19:59:50.473Z,28.94
2018-05-31T20:02:23.555Z,28.95
2018-05-31T20:04:51.090Z,28.93
2018-05-31T20:07:18.672Z,28.88
2018-05-31T20:09:46.209Z,28.85
2018-05-31T20:12:13.727Z,28.84
2018-05-31T20:14:41.329Z,28.83
2018-05-31T20:17:08.866Z,28.81
2018-05-31T20:19:36.385Z,28.77
2018-05-31T20:22:03.915Z,28.71
2018-05-31T20:24:31.435Z,28.72
2018-05-31T20:26:59.027Z,28.69
2018-05-31T20:29:26.552Z,28.66
2018-05-31T20:31:54.148Z,28.65
2018-05-31T20:34:21.676Z,28.60
2018-05-31T20:36:49.197Z,28.52
2018-05-31T20:39:16.778Z,28.48
2018-05-31T20:41:44.385Z,28.37
2018-05-31T20:44:11.919Z,28.35
2018-05-31T20:46:39.431Z,28.34
2018-05-31T20:49:06.964Z,28.33
2018-05-31T20:51:34.493Z,28.35
2018-05-31T20:54:02.019Z,28.23
2018-05-31T20:56:29.555Z,28.11
2018-05-31T20:58:57.143Z,28.10
2018-05-31T21:01:24.760Z,28.06
2018-05-31T21:03:52.336Z,28.04
2018-05-31T21:06:19.872Z,27.95
2018-05-31T21:08:47.399Z,27.92
2018-05-31T21:11:14.942Z,27.85
2018-05-31T21:13:42.593Z,27.81
2018-05-31T21:16:10.127Z,27.76
2018-05-31T21:18:37.787Z,27.75
2018-05-31T21:21:05.329Z,27.70
2018-05-31T21:23:32.902Z,27.68
2018-05-31T21:26:00.545Z,27.64
2018-05-31T21:28:28.083Z,27.63
2018-05-31T21:30:55.644Z,27.65
2018-05-31T21:33:23.163Z,27.57
2018-05-31T21:35:50.680Z,27.50
2018-05-31T21:38:18.195Z,27.52
2018-05-31T21:40:45.803Z,27.28
2018-05-31T21:43:13.333Z,27.28
2018-05-31T21:45:40.939Z,27.22
2018-05-31T21:48:08.474Z,27.21
2018-05-31T21:50:36.061Z,27.24
2018-05-31T21:53:03.619Z,27.24
2018-05-31T21:55:31.180Z,27.15
2018-05-31T21:57:58.776Z,27.20
2018-05-31T22:00:30.830Z,27.19
2018-05-31T22:02:58.466Z,27.15
2018-05-31T22:05:25.997Z,27.12
2018-05-31T22:07:53.512Z,27.07
2018-05-31T22:10:21.117Z,27.05
2018-05-31T22:12:48.725Z,27.04
2018-05-31T22:15:16.250Z,27.03
2018-05-31T22:17:43.780Z,27.02
2018-05-31T22:20:11.385Z,26.98
2018-05-31T22:22:38.916Z,26.97
2018-05-31T22:25:06.445Z,26.93
2018-05-31T22:27:33.995Z,26.90
2018-05-31T22:30:01.528Z,26.82
2018-05-31T22:32:29.082Z,26.80
2018-05-31T22:34:56.642Z,26.78
2018-05-31T22:37:24.202Z,26.73
2018-05-31T22:39:51.765Z,26.76
2018-05-31T22:42:19.290Z,26.74
2018-05-31T22:44:46.822Z,26.74
2018-05-31T22:47:14.349Z,26.72
2018-05-31T22:49:41.914Z,26.68
2018-05-31T22:52:09.666Z,26.65
2018-05-31T22:54:37.191Z,26.63
2018-05-31T22:57:04.782Z,26.61
2018-05-31T22:59:32.347Z,26.59
2018-05-31T23:02:00.190Z,26.50
2018-05-31T23:04:27.872Z,26.49
2018-05-31T23:06:55.400Z,26.45
2018-05-31T23:09:22.992Z,26.36
2018-05-31T23:11:50.521Z,26.39
2018-05-31T23:14:18.212Z,26.30
2018-05-31T23:16:46.083Z,26.33
2018-05-31T23:19:13.637Z,26.34
2018-05-31T23:21:41.204Z,26.23
2018-05-31T23:24:08.800Z,26.28
2018-05-31T23:26:36.343Z,26.23
2018-05-31T23:29:03.983Z,26.10
2018-05-31T23:31:31.548Z,26.18
2018-05-31T23:33:59.228Z,26.18
2018-05-31T23:36:26.752Z,26.15
2018-05-31T23:38:54.324Z,26.11
2018-05-31T23:41:21.994Z,26.06
2018-05-31T23:43:49.644Z,26.08
2018-05-31T23:46:17.167Z,26.06
2018-05-31T23:48:44.762Z,26.04
2018-05-31T23:51:12.284Z,25.99
2018-05-31T23:53:39.807Z,25.98
2018-05-31T23:56:07.449Z,25.95
2018-05-31T23:58:35.011Z,25.92
